Time;durP1;ratioP1;P1;durP2;ratioP2;P2;SDS_P1;SDS_P2;PMS_P1;PMS_P2;Temp;Humidity;BMP_temperature;BMP_pressure;BME280_temperature;BME280_humidity;BME280_pressure;Samples;Min_cycle;Max_cycle;Signal;HPM_P1;HPM_P2
2022/03/21 00:00:14;;;;;;;69.05;36.65;;;;;;;-2.10;75.70;101415.72;2081747;28;20291;-74
2022/03/21 00:01:18;;;;;;;65.40;36.88;;;;;;;-2.12;76.04;101404.59;2081587;28;20199;-73
2022/03/21 00:02:21;;;;;;;64.88;36.45;;;;;;;-2.14;75.86;101414.41;2082448;28;20187;-73
2022/03/21 00:03:26;;;;;;;61.10;36.40;;;;;;;-2.15;76.04;101410.16;2082158;28;20560;-73
2022/03/21 00:04:29;;;;;;;64.00;35.97;;;;;;;-2.16;75.80;101411.13;2082138;28;20246;-73
2022/03/21 00:05:30;;;;;;;69.65;37.58;;;;;;;-2.17;76.34;101407.69;2081452;28;20208;-74
2022/03/21 00:06:33;;;;;;;73.35;37.33;;;;;;;-2.17;76.08;101402.47;2072947;28;20221;-73
2022/03/21 00:07:34;;;;;;;61.13;35.42;;;;;;;-2.17;76.81;101407.69;2073818;28;20212;-73
2022/03/21 00:08:39;;;;;;;65.70;37.30;;;;;;;-2.18;76.77;101408.63;2073716;28;20208;-73
2022/03/21 00:09:41;;;;;;;59.40;34.80;;;;;;;-2.18;78.18;101410.44;2074175;28;20731;-73
2022/03/21 00:10:45;;;;;;;67.20;36.83;;;;;;;-2.19;78.87;101411.41;2081795;28;20565;-72
2022/03/21 00:11:50;;;;;;;71.25;38.00;;;;;;;-2.23;79.14;101404.88;2082102;28;20195;-73
2022/03/21 00:12:51;;;;;;;71.45;38.53;;;;;;;-2.25;78.78;101407.63;2081443;28;20207;-73
2022/03/21 00:13:55;;;;;;;74.03;40.10;;;;;;;-2.25;79.23;101398.97;2081761;28;20566;-73
2022/03/21 00:14:56;;;;;;;69.80;38.67;;;;;;;-2.24;79.18;101406.66;2082371;28;20203;-73
2022/03/21 00:15:58;;;;;;;74.28;39.80;;;;;;;-2.27;79.37;101397.31;2082218;28;20184;-73
2022/03/21 00:17:00;;;;;;;78.82;40.97;;;;;;;-2.21;79.25;101400.28;2082055;28;20207;-72
2022/03/21 00:18:03;;;;;;;79.20;41.63;;;;;;;-2.20;79.28;101404.53;2081487;28;20195;-73
2022/03/21 00:19:06;;;;;;;84.43;41.53;;;;;;;-2.18;79.03;101402.59;2081547;28;20198;-73
2022/03/21 00:20:12;;;;;;;82.72;42.80;;;;;;;-2.14;79.43;101402.13;2081390;28;20196;-73
2022/03/21 00:21:15;;;;;;;84.43;41.65;;;;;;;-2.13;79.31;101397.72;2073916;28;20574;-73
2022/03/21 00:22:20;;;;;;;84.03;40.47;;;;;;;-2.09;79.43;101404.28;2081457;28;20590;-73
2022/03/21 00:23:23;;;;;;;82.03;40.95;;;;;;;-2.10;79.69;101405.25;2081387;28;20200;-73
2022/03/21 00:24:24;;;;;;;76.32;39.42;;;;;;;-2.12;79.74;101399.38;2081768;28;20282;-73
2022/03/21 00:25:28;;;;;;;86.18;42.40;;;;;;;-2.14;79.39;101396.91;2081632;28;20215;-73
2022/03/21 00:26:31;;;;;;;84.80;42.78;;;;;;;-2.15;79.70;101399.69;2083119;28;20199;-73
2022/03/21 00:27:34;;;;;;;74.13;40.53;;;;;;;-2.17;79.75;101397.22;2083537;28;20204;-73
2022/03/21 00:28:38;;;;;;;79.18;41.53;;;;;;;-2.17;79.34;101399.00;2083172;28;20198;-73
2022/03/21 00:29:41;;;;;;;83.07;41.85;;;;;;;-2.14;80.23;101398.72;2083123;28;20203;-73
2022/03/21 00:30:43;;;;;;;77.05;43.88;;;;;;;-2.12;80.01;101399.38;2075531;28;20675;-73
2022/03/21 00:31:45;;;;;;;89.38;42.97;;;;;;;-2.11;80.15;101401.00;2075000;28;20273;-73
2022/03/21 00:32:49;;;;;;;89.38;43.35;;;;;;;-2.11;80.14;101395.78;2083052;28;20207;-73
2022/03/21 00:33:52;;;;;;;78.82;43.10;;;;;;;-2.06;80.19;101399.56;2083086;28;20203;-74
2022/03/21 00:34:53;;;;;;;80.63;42.47;;;;;;;-2.03;79.54;101398.44;2075214;28;20227;-73
2022/03/21 00:35:56;;;;;;;82.78;42.38;;;;;;;-2.06;79.67;101389.09;2082705;28;20214;-73
2022/03/21 00:36:59;;;;;;;86.43;43.58;;;;;;;-2.06;78.78;101394.34;2082957;28;20223;-73
2022/03/21 00:38:01;;;;;;;80.18;40.05;;;;;;;-2.08;79.29;101396.31;2083069;28;20191;-73
2022/03/21 00:39:03;;;;;;;71.78;38.58;;;;;;;-2.11;79.08;101393.97;2083013;28;20196;-73
2022/03/21 00:40:07;;;;;;;72.40;39.30;;;;;;;-2.15;79.93;101384.81;2074893;28;20292;-73
2022/03/21 00:41:09;;;;;;;70.50;39.22;;;;;;;-2.17;80.56;101393.78;2083158;28;20669;-73
2022/03/21 00:42:13;;;;;;;73.72;39.95;;;;;;;-2.22;81.24;101388.19;2083723;28;20195;-72
2022/03/21 00:43:18;;;;;;;75.90;39.78;;;;;;;-2.29;81.71;101380.97;2083718;28;20678;-72
2022/03/21 00:44:19;;;;;;;82.38;41.67;;;;;;;-2.32;81.89;101383.09;2083265;28;20290;-73
2022/03/21 00:45:25;;;;;;;77.47;41.30;;;;;;;-2.36;81.86;101376.50;2083206;28;20267;-73
2022/03/21 00:46:27;;;;;;;69.93;38.10;;;;;;;-2.36;82.67;101384.34;2083903;28;20659;-73
2022/03/21 00:47:31;;;;;;;82.15;39.08;;;;;;;-2.41;83.04;101381.41;2082828;28;20219;-73
2022/03/21 00:48:32;;;;;;;76.20;39.20;;;;;;;-2.41;83.54;101382.22;2083381;28;20183;-73
2022/03/21 00:49:35;;;;;;;68.57;38.63;;;;;;;-2.45;83.47;101378.25;2083801;28;20211;-73
2022/03/21 00:50:37;;;;;;;83.10;43.38;;;;;;;-2.50;83.83;101375.28;2083630;28;20358;-73
2022/03/21 00:51:43;;;;;;;82.97;43.35;;;;;;;-2.53;84.27;101380.81;2082465;28;20223;-73
2022/03/21 00:52:45;;;;;;;80.47;42.13;;;;;;;-2.51;85.19;101380.69;2082975;28;20218;-74
2022/03/21 00:53:47;;;;;;;83.72;42.75;;;;;;;-2.50;85.39;101375.28;2074797;28;20659;-73
2022/03/21 00:54:49;;;;;;;84.88;42.10;;;;;;;-2.48;85.91;101378.56;2075134;28;20212;-73
2022/03/21 00:55:52;;;;;;;83.95;44.17;;;;;;;-2.46;85.93;101381.84;2082999;28;20196;-73
2022/03/21 00:56:53;;;;;;;91.05;44.38;;;;;;;-2.42;86.39;101383.19;2082769;28;20211;-72
2022/03/21 00:58:02;;;;;;;78.35;42.65;;;;;;;-2.40;87.06;101377.81;2082675;28;20203;-73
2022/03/21 00:59:06;;;;;;;86.45;43.13;;;;;;;-2.41;86.48;101371.75;2083849;28;20273;-72
2022/03/21 01:00:12;;;;;;;74.45;41.33;;;;;;;-2.40;86.82;101375.19;2083677;28;20191;-72
2022/03/21 01:01:14;;;;;;;77.85;42.97;;;;;;;-2.39;86.37;101372.41;2083635;28;20188;-72
2022/03/21 01:02:17;;;;;;;87.78;44.13;;;;;;;-2.41;86.86;101371.75;2083586;28;20188;-72
2022/03/21 01:03:20;;;;;;;83.95;41.75;;;;;;;-2.41;86.46;101374.38;2083558;28;20661;-72
2022/03/21 01:04:21;;;;;;;78.10;43.47;;;;;;;-2.46;86.73;101366.16;2083216;28;20210;-72
2022/03/21 01:05:26;;;;;;;83.60;42.95;;;;;;;-2.47;86.50;101371.53;2082838;28;20634;-73
2022/03/21 01:06:29;;;;;;;78.18;42.53;;;;;;;-2.50;86.59;101370.06;2082732;28;20242;-73
2022/03/21 01:07:31;;;;;;;78.95;41.55;;;;;;;-2.51;86.70;101371.03;2082900;28;20234;-72
2022/03/21 01:08:32;;;;;;;80.75;40.78;;;;;;;-2.52;87.25;101376.41;2083104;28;20208;-73
2022/03/21 01:09:34;;;;;;;69.60;39.37;;;;;;;-2.57;87.40;101371.66;2074696;28;20283;-73
2022/03/21 01:10:36;;;;;;;76.95;39.92;;;;;;;-2.64;87.92;101365.38;2082733;28;20226;-73
2022/03/21 01:11:39;;;;;;;77.25;40.35;;;;;;;-2.67;88.81;101363.91;2074558;28;20205;-73
2022/03/21 01:12:40;;;;;;;79.45;41.00;;;;;;;-2.72;89.19;101368.75;2083301;28;20238;-73
2022/03/21 01:13:43;;;;;;;84.85;43.60;;;;;;;-2.73;89.08;101367.13;2074673;28;20671;-73
2022/03/21 01:14:45;;;;;;;78.22;41.22;;;;;;;-2.73;89.93;101358.47;2074773;28;20737;-73
2022/03/21 01:15:47;;;;;;;81.90;42.22;;;;;;;-2.77;90.57;101363.19;2074957;28;20295;-73
2022/03/21 01:16:50;;;;;;;83.70;41.97;;;;;;;-2.76;91.53;101369.25;2082995;28;20278;-73
2022/03/21 01:17:52;;;;;;;75.88;41.25;;;;;;;-2.78;91.53;101360.72;2083334;28;20188;-73
2022/03/21 01:18:54;;;;;;;77.93;40.58;;;;;;;-2.78;92.23;101363.31;2082713;28;20228;-73
2022/03/21 01:19:56;;;;;;;77.28;40.20;;;;;;;-2.76;92.86;101353.56;2082952;28;20192;-73
2022/03/21 01:20:57;;;;;;;87.47;40.63;;;;;;;-2.75;93.45;101361.25;2083064;28;20196;-72
2022/03/21 01:21:59;;;;;;;77.15;38.85;;;;;;;-2.74;94.38;101362.06;2083046;28;20204;-73
2022/03/21 01:23:02;;;;;;;71.88;38.00;;;;;;;-2.75;94.18;101355.19;2074615;28;20541;-73
2022/03/21 01:24:03;;;;;;;69.00;39.17;;;;;;;-2.75;94.58;101361.25;2074631;28;20193;-73
2022/03/21 01:25:07;;;;;;;70.68;39.30;;;;;;;-2.75;94.73;101361.25;2074624;28;20575;-73
2022/03/21 01:26:08;;;;;;;76.30;39.05;;;;;;;-2.77;94.54;101354.53;2082746;28;20203;-73
2022/03/21 01:27:11;;;;;;;71.97;38.73;;;;;;;-2.79;95.02;101359.06;2082608;28;20670;-73
2022/03/21 01:28:12;;;;;;;71.90;39.65;;;;;;;-2.82;95.08;101365.44;2074954;28;20592;-73
2022/03/21 01:29:18;;;;;;;71.38;38.35;;;;;;;-2.85;95.04;101358.72;2074738;28;20574;-73
2022/03/21 01:30:24;;;;;;;73.53;38.58;;;;;;;-2.87;95.31;101358.06;2074962;28;20231;-73
2022/03/21 01:31:25;;;;;;;72.22;39.05;;;;;;;-2.90;95.47;101358.34;2082795;28;20200;-73
2022/03/21 01:32:27;;;;;;;77.35;38.88;;;;;;;-2.91;96.30;101361.94;2082999;28;20204;-73
2022/03/21 01:33:31;;;;;;;71.85;40.03;;;;;;;-2.94;96.41;101354.41;2083223;28;20196;-73
2022/03/21 01:34:33;;;;;;;78.78;40.25;;;;;;;-2.95;96.36;101358.00;2083232;28;20184;-74
2022/03/21 01:35:36;;;;;;;72.15;39.80;;;;;;;-2.96;96.65;101352.91;2083311;28;20673;-73
2022/03/21 01:36:37;;;;;;;62.95;37.28;;;;;;;-2.99;96.66;101354.03;2082409;28;20227;-73
2022/03/21 01:37:39;;;;;;;75.20;39.65;;;;;;;-3.02;97.13;101353.53;2082698;28;20212;-73
2022/03/21 01:38:40;;;;;;;71.85;39.00;;;;;;;-3.02;97.41;101358.75;2082519;28;20199;-73
2022/03/21 01:39:43;;;;;;;71.75;40.72;;;;;;;-3.07;97.40;101351.34;2082615;28;20200;-73
2022/03/21 01:40:44;;;;;;;79.35;41.15;;;;;;;-3.08;98.07;101346.28;2083225;28;20234;-74
2022/03/21 01:41:46;;;;;;;86.80;43.43;;;;;;;-3.10;97.93;101351.66;2083402;28;20191;-73
2022/03/21 01:42:47;;;;;;;83.18;43.08;;;;;;;-3.14;98.48;101345.09;2083268;28;20195;-74
2022/03/21 01:43:56;;;;;;;74.77;41.23;;;;;;;-3.14;98.69;101351.13;2082776;28;20205;-74
2022/03/21 01:44:59;;;;;;;81.22;40.25;;;;;;;-3.17;99.38;101345.41;2075536;28;20235;-73
2022/03/21 01:46:01;;;;;;;83.63;40.63;;;;;;;-3.20;99.59;101353.53;2082600;28;20222;-73
2022/03/21 01:47:03;;;;;;;82.45;41.35;;;;;;;-3.22;99.89;101343.22;2083263;28;20202;-73
2022/03/21 01:48:06;;;;;;;81.47;41.97;;;;;;;-3.21;99.85;101349.28;2082188;28;20702;-74
2022/03/21 01:49:09;;;;;;;75.70;40.08;;;;;;;-3.21;100.00;101349.28;2082719;28;20533;-73
2022/03/21 01:50:12;;;;;;;78.40;43.13;;;;;;;-3.20;100.00;101353.53;2083166;28;20217;-73
2022/03/21 01:51:16;;;;;;;82.10;42.67;;;;;;;-3.20;100.00;101354.34;2081951;28;20223;-73
2022/03/21 01:52:21;;;;;;;83.53;43.15;;;;;;;-3.22;100.00;101345.81;2082562;28;20680;-73
2022/03/21 01:56:02;;;;;;;82.32;41.55;;;;;;;-3.23;99.70;101354.63;2083280;28;20244;-73
2022/03/21 01:57:06;;;;;;;83.77;44.20;;;;;;;-3.24;99.56;101344.34;2083197;28;20188;-73
2022/03/21 01:58:13;;;;;;;89.60;43.85;;;;;;;-3.24;99.66;101354.78;2082344;28;20204;-73
2022/03/21 01:59:19;;;;;;;79.97;42.63;;;;;;;-3.25;99.52;101359.19;2074967;28;20312;-73
2022/03/21 02:00:22;;;;;;;85.70;42.28;;;;;;;-3.27;99.10;101355.91;2082561;28;20183;-73
2022/03/21 02:01:26;;;;;;;79.63;43.67;;;;;;;-3.28;99.49;101351.66;2082828;28;20200;-74
2022/03/21 02:02:36;;;;;;;88.47;42.35;;;;;;;-3.28;99.44;101362.09;2074709;28;20208;-74
2022/03/21 02:03:37;;;;;;;83.65;42.92;;;;;;;-3.27;99.27;101355.91;2082383;28;20215;-73
2022/03/21 02:04:42;;;;;;;82.28;43.78;;;;;;;-3.27;99.78;101349.88;2074195;28;20295;-73
2022/03/21 02:05:47;;;;;;;90.05;44.78;;;;;;;-3.25;99.92;101351.34;2074920;28;20208;-73
2022/03/21 02:06:50;;;;;;;81.82;43.90;;;;;;;-3.22;100.00;101358.06;2082462;28;20231;-73
2022/03/21 02:07:53;;;;;;;76.47;42.80;;;;;;;-3.22;100.00;101352.84;2083056;28;20207;-73
2022/03/21 02:08:58;;;;;;;92.18;43.78;;;;;;;-3.20;100.00;101356.16;2083069;28;20197;-73
2022/03/21 02:09:59;;;;;;;91.97;43.47;;;;;;;-3.20;100.00;101356.16;2082182;28;20257;-73
2022/03/21 02:11:02;;;;;;;86.22;43.22;;;;;;;-3.21;100.00;101357.13;2074367;28;20201;-74
2022/03/21 02:12:08;;;;;;;80.90;44.47;;;;;;;-3.18;100.00;101362.03;2074323;28;20214;-73
2022/03/21 02:13:11;;;;;;;86.18;43.58;;;;;;;-3.18;100.00;101357.63;2082645;28;20195;-73
2022/03/21 02:14:14;;;;;;;93.82;44.15;;;;;;;-3.17;100.00;101348.00;2082614;28;20207;-73
2022/03/21 02:15:15;;;;;;;96.72;46.13;;;;;;;-3.13;100.00;101363.22;2082355;28;20194;-73
2022/03/21 02:16:19;;;;;;;84.35;44.97;;;;;;;-3.13;100.00;101352.78;2082924;28;20282;-73
2022/03/21 02:17:22;;;;;;;84.97;44.50;;;;;;;-3.09;100.00;101362.91;2082482;28;20199;-73
2022/03/21 02:18:25;;;;;;;93.75;44.97;;;;;;;-3.05;100.00;101367.69;2082352;28;20215;-73
2022/03/21 02:19:30;;;;;;;85.65;43.47;;;;;;;-3.03;100.00;101363.16;2082919;28;20215;-74
2022/03/21 02:20:35;;;;;;;90.43;45.90;;;;;;;-3.04;100.00;101358.91;2082929;28;20211;-74
2022/03/21 02:21:48;;;;;;;98.25;45.95;;;;;;;-3.02;100.00;101363.97;2082345;28;20665;-73
2022/03/21 02:22:55;;;;;;;94.78;45.53;;;;;;;-3.07;100.00;101360.97;2082431;28;20662;-74
2022/03/21 02:24:01;;;;;;;90.95;45.17;;;;;;;-3.05;100.00;101359.03;2083182;28;20527;-73
2022/03/21 02:25:14;;;;;;;96.97;44.67;;;;;;;-3.06;99.93;101368.66;2082939;28;20529;-73
2022/03/21 02:26:15;;;;;;;90.95;45.38;;;;;;;-3.08;99.57;101360.16;2082451;28;20215;-73
2022/03/21 02:27:22;;;;;;;90.80;43.35;;;;;;;-3.09;99.46;101368.16;2074028;28;20200;-73
2022/03/21 02:28:25;;;;;;;90.90;44.63;;;;;;;-3.12;99.13;101366.66;2074779;28;20207;-73
2022/03/21 02:29:28;;;;;;;89.90;43.58;;;;;;;-3.14;99.56;101361.56;2082350;28;20192;-73
2022/03/21 02:30:31;;;;;;;89.18;44.55;;;;;;;-3.16;99.28;101367.91;2082370;28;20734;-74
2022/03/21 02:31:34;;;;;;;93.43;45.58;;;;;;;-3.20;99.37;101356.16;2082192;28;20192;-74
2022/03/21 02:32:37;;;;;;;91.80;45.05;;;;;;;-3.19;99.72;101369.03;2082790;28;20191;-73
2022/03/21 02:33:40;;;;;;;98.35;47.70;;;;;;;-3.20;99.86;101361.38;2082102;28;20566;-74
2022/03/21 02:34:42;;;;;;;93.35;46.42;;;;;;;-3.22;99.57;101361.50;2082281;28;20203;-73
2022/03/21 02:35:48;;;;;;;100.28;46.30;;;;;;;-3.17;99.28;101374.09;2082973;28;20647;-73
2022/03/21 02:36:50;;;;;;;89.28;46.20;;;;;;;-3.19;99.35;101363.81;2082375;28;20554;-73
2022/03/21 02:37:53;;;;;;;97.90;47.45;;;;;;;-3.19;99.57;101368.22;2082741;28;20204;-73
2022/03/21 02:38:56;;;;;;;95.90;46.15;;;;;;;-3.20;99.32;101371.81;2083014;28;20199;-73
2022/03/21 02:39:59;;;;;;;98.07;46.35;;;;;;;-3.21;99.29;101365.78;2082165;28;20203;-73
2022/03/21 02:41:04;;;;;;;104.07;46.17;;;;;;;-3.19;99.16;101373.44;2082351;28;20201;-73
2022/03/21 02:42:09;;;;;;;93.03;46.58;;;;;;;-3.18;98.74;101364.63;2074461;28;20184;-73
2022/03/21 02:43:11;;;;;;;98.82;47.20;;;;;;;-3.18;98.47;101373.28;2074606;28;20204;-73
2022/03/21 02:44:15;;;;;;;92.35;45.83;;;;;;;-3.18;98.34;101373.28;2082101;28;20195;-73
2022/03/21 02:45:16;;;;;;;97.22;47.50;;;;;;;-3.17;97.99;101366.28;2083010;28;20650;-73
2022/03/21 02:46:19;;;;;;;95.63;46.97;;;;;;;-3.17;97.86;101382.75;2082925;28;20188;-73
2022/03/21 02:47:23;;;;;;;94.82;47.25;;;;;;;-3.15;98.18;101380.81;2082248;28;20234;-73
2022/03/21 02:48:30;;;;;;;94.93;47.20;;;;;;;-3.14;97.83;101385.06;2074057;28;20228;-73
2022/03/21 02:49:32;;;;;;;91.97;46.63;;;;;;;-3.16;97.41;101373.97;2074098;28;20732;-73
2022/03/21 02:50:39;;;;;;;96.10;46.60;;;;;;;-3.15;97.90;101380.00;2081966;28;20218;-73
2022/03/21 02:51:45;;;;;;;98.85;46.58;;;;;;;-3.19;97.59;101373.44;2074649;28;20232;-73
2022/03/21 02:52:47;;;;;;;94.57;47.40;;;;;;;-3.18;97.67;101380.31;2082404;28;20176;-74
2022/03/21 02:53:51;;;;;;;103.80;47.72;;;;;;;-3.19;97.87;101376.06;2082775;28;20191;-74
2022/03/21 02:54:53;;;;;;;106.97;48.75;;;;;;;-3.19;98.31;101378.66;2082686;28;20274;-74
2022/03/21 02:55:56;;;;;;;96.43;48.67;;;;;;;-3.20;98.17;101371.81;2082636;28;20184;-73
2022/03/21 02:57:02;;;;;;;99.45;48.30;;;;;;;-3.20;98.13;101372.63;2082354;28;20565;-73
2022/03/21 02:58:04;;;;;;;102.72;49.95;;;;;;;-3.19;98.78;101370.84;2082026;28;20694;-73
2022/03/21 02:59:07;;;;;;;110.45;50.03;;;;;;;-3.18;99.04;101373.28;2082630;28;20215;-74
2022/03/21 03:00:12;;;;;;;102.55;49.13;;;;;;;-3.19;98.35;101374.25;2082311;28;20670;-74
2022/03/21 03:01:17;;;;;;;105.32;50.10;;;;;;;-3.22;99.04;101360.66;2082087;28;20279;-74
2022/03/21 03:02:18;;;;;;;97.88;48.53;;;;;;;-3.22;99.09;101371.94;2082627;28;20278;-73
2022/03/21 03:03:20;;;;;;;101.60;48.97;;;;;;;-3.21;98.90;101367.56;2081958;28;20200;-73
2022/03/21 03:04:22;;;;;;;101.45;50.60;;;;;;;-3.24;98.92;101373.88;2082241;28;20458;-73
2022/03/21 03:05:24;;;;;;;106.68;51.05;;;;;;;-3.23;98.85;101374.69;2082583;28;20602;-73
2022/03/21 03:06:28;;;;;;;106.20;50.25;;;;;;;-3.23;99.05;101379.91;2081705;28;20219;-74
2022/03/21 03:07:29;;;;;;;101.45;50.63;;;;;;;-3.27;98.40;101376.78;2082017;28;20187;-74
2022/03/21 03:08:31;;;;;;;114.97;52.13;;;;;;;-3.26;98.30;101383.66;2082644;28;20192;-73
2022/03/21 03:09:34;;;;;;;104.00;50.53;;;;;;;-3.25;98.64;101376.63;2081901;28;20670;-74
2022/03/21 03:10:35;;;;;;;121.05;51.38;;;;;;;-3.24;98.13;101381.72;2081960;28;20690;-73
2022/03/21 03:11:38;;;;;;;108.88;52.80;;;;;;;-3.22;98.20;101378.94;2082548;28;20190;-73
2022/03/21 03:12:41;;;;;;;109.43;52.88;;;;;;;-3.23;97.88;101378.13;2082508;28;20257;-73
2022/03/21 03:13:43;;;;;;;103.72;50.92;;;;;;;-3.22;98.04;101381.56;2082123;28;20200;-73
2022/03/21 03:14:44;;;;;;;113.03;51.67;;;;;;;-3.22;97.84;101378.94;2082071;28;20191;-73
2022/03/21 03:15:47;;;;;;;110.85;51.92;;;;;;;-3.23;97.71;101382.53;2081817;28;20253;-73
2022/03/21 03:16:50;;;;;;;114.38;52.33;;;;;;;-3.24;97.45;101375.66;2082018;28;20191;-73
2022/03/21 03:17:53;;;;;;;105.82;49.85;;;;;;;-3.23;97.44;101382.53;2082119;28;20254;-73
2022/03/21 03:18:56;;;;;;;104.70;52.75;;;;;;;-3.22;98.07;101377.16;2081876;28;20203;-74
2022/03/21 03:19:58;;;;;;;118.07;52.45;;;;;;;-3.22;97.88;101371.13;2082594;28;20555;-76
2022/03/21 03:21:01;;;;;;;104.00;49.67;;;;;;;-3.24;97.41;101376.50;2081930;28;20211;-73
2022/03/21 03:22:04;;;;;;;104.90;50.92;;;;;;;-3.22;97.51;101384.16;2082450;28;20180;-73
2022/03/21 03:23:05;;;;;;;111.65;51.58;;;;;;;-3.24;97.38;101375.66;2081611;28;20204;-74
2022/03/21 03:24:10;;;;;;;105.20;50.45;;;;;;;-3.25;97.89;101376.63;2081881;28;20249;-74
2022/03/21 03:25:12;;;;;;;106.55;51.58;;;;;;;-3.27;97.43;101375.97;2081949;28;20590;-73
2022/03/21 03:26:14;;;;;;;109.97;49.50;;;;;;;-3.27;97.76;101381.19;2081882;28;20711;-73
2022/03/21 03:27:15;;;;;;;107.10;50.25;;;;;;;-3.29;98.15;101378.75;2082360;28;20611;-73
2022/03/21 03:28:19;;;;;;;103.60;49.87;;;;;;;-3.31;97.76;101379.84;2081769;28;20642;-73
2022/03/21 03:29:20;;;;;;;102.25;49.83;;;;;;;-3.30;98.13;101376.25;2081969;28;20184;-73
2022/03/21 03:30:24;;;;;;;106.07;51.53;;;;;;;-3.29;98.42;101383.97;2081977;28;20203;-73
2022/03/21 03:31:25;;;;;;;105.38;51.80;;;;;;;-3.28;98.72;101379.56;2074058;28;20210;-73
2022/03/21 03:32:28;;;;;;;103.63;50.40;;;;;;;-3.30;98.87;101386.69;2081713;28;20224;-73
2022/03/21 03:33:30;;;;;;;103.20;50.22;;;;;;;-3.31;98.73;101374.63;2081833;28;20196;-73
2022/03/21 03:34:33;;;;;;;104.78;48.75;;;;;;;-3.34;98.87;101374.94;2081823;28;20535;-73
2022/03/21 03:35:35;;;;;;;104.28;49.30;;;;;;;-3.31;99.08;101377.22;2081724;28;20303;-73
2022/03/21 03:36:41;;;;;;;110.00;50.08;;;;;;;-3.30;99.57;101377.09;2073124;28;20220;-74
2022/03/21 03:37:41;;;;;;;99.80;49.22;;;;;;;-3.30;99.56;101379.72;2081817;28;20188;-74
2022/03/21 03:38:44;;;;;;;105.20;50.15;;;;;;;-3.28;99.15;101377.78;2082328;28;20188;-73
2022/03/21 03:39:46;;;;;;;110.05;48.28;;;;;;;-3.29;98.92;101377.94;2082544;28;20188;-74
2022/03/21 03:40:48;;;;;;;104.13;50.47;;;;;;;-3.33;98.90;101377.38;2081574;28;20203;-73
2022/03/21 03:41:49;;;;;;;113.55;50.05;;;;;;;-3.32;99.41;101379.00;2073708;28;20207;-73
2022/03/21 03:42:51;;;;;;;106.80;50.45;;;;;;;-3.30;98.92;101386.69;2081729;28;20237;-73
2022/03/21 03:43:58;;;;;;;100.47;48.80;;;;;;;-3.32;99.21;101384.25;2082205;28;20194;-73
2022/03/21 03:45:03;;;;;;;94.15;48.85;;;;;;;-3.33;99.12;101376.56;2081949;28;20203;-73
2022/03/21 03:46:06;;;;;;;100.18;50.13;;;;;;;-3.33;99.13;101376.56;2081743;28;20237;-74
2022/03/21 03:47:08;;;;;;;105.38;49.00;;;;;;;-3.33;99.27;101381.78;2081448;28;20258;-73
2022/03/21 03:48:11;;;;;;;96.75;48.55;;;;;;;-3.34;99.31;101380.16;2073356;28;20290;-73
2022/03/21 03:49:12;;;;;;;108.32;50.00;;;;;;;-3.34;99.42;101385.38;2073746;28;20637;-73
2022/03/21 03:50:15;;;;;;;101.50;49.38;;;;;;;-3.36;99.57;101384.69;2081878;28;20183;-74
2022/03/21 03:51:16;;;;;;;104.30;49.92;;;;;;;-3.37;99.30;101383.88;2081449;28;20224;-73
2022/03/21 03:52:21;;;;;;;103.30;51.00;;;;;;;-3.38;99.57;101378.81;2081839;28;20195;-73
2022/03/21 03:53:22;;;;;;;104.10;50.70;;;;;;;-3.40;99.56;101378.94;2081803;28;20204;-73
2022/03/21 03:54:24;;;;;;;110.22;50.42;;;;;;;-3.43;99.92;101374.84;2081493;28;20195;-74
2022/03/21 03:55:26;;;;;;;104.68;50.15;;;;;;;-3.42;99.97;101379.09;2081853;28;20521;-73
2022/03/21 03:56:28;;;;;;;110.15;52.05;;;;;;;-3.44;100.00;101375.81;2081533;28;20679;-73
2022/03/21 03:57:29;;;;;;;112.25;50.78;;;;;;;-3.45;100.00;101370.75;2081686;28;20278;-74
2022/03/21 03:58:33;;;;;;;109.35;49.80;;;;;;;-3.46;100.00;101371.72;2081645;28;20593;-73
2022/03/21 03:59:35;;;;;;;104.55;49.25;;;;;;;-3.47;100.00;101375.31;2081430;28;20313;-73
2022/03/21 04:00:38;;;;;;;114.45;51.33;;;;;;;-3.49;100.00;101372.00;2080876;28;20250;-73
2022/03/21 04:01:43;;;;;;;100.68;51.05;;;;;;;-3.51;100.00;101381.75;2081922;28;20333;-74
2022/03/21 04:04:04;;;;;;;102.18;50.17;;;;;;;-3.59;100.00;101379.06;2081936;28;20184;-73
2022/03/21 04:05:06;;;;;;;108.20;51.45;;;;;;;-3.61;100.00;101379.22;2081431;28;20299;-73
2022/03/21 04:06:09;;;;;;;105.32;51.33;;;;;;;-3.62;100.00;101374.97;2080937;28;20273;-73
2022/03/21 04:07:12;;;;;;;106.38;51.03;;;;;;;-3.63;100.00;101372.50;2082336;28;20696;-73
2022/03/21 04:08:14;;;;;;;106.88;51.67;;;;;;;-3.64;100.00;101384.75;2082090;28;20593;-73
2022/03/21 04:09:16;;;;;;;101.65;51.15;;;;;;;-3.64;100.00;101379.53;2082157;28;20194;-73
2022/03/21 04:10:17;;;;;;;97.40;50.28;;;;;;;-3.66;100.00;101378.81;2082200;28;20246;-73
2022/03/21 04:11:20;;;;;;;102.22;50.53;;;;;;;-3.70;100.00;101377.47;2082344;28;20696;-73
2022/03/21 04:12:23;;;;;;;97.72;49.45;;;;;;;-3.72;100.00;101372.41;2082290;28;20187;-74
2022/03/21 04:13:25;;;;;;;108.97;49.78;;;;;;;-3.74;100.00;101378.72;2081458;28;20237;-74
2022/03/21 04:14:27;;;;;;;106.65;50.35;;;;;;;-3.78;100.00;101367.78;2081518;28;20294;-74
2022/03/21 04:15:31;;;;;;;96.70;50.30;;;;;;;-3.79;100.00;101373.97;2081138;28;20704;-74
2022/03/21 04:16:35;;;;;;;109.32;51.17;;;;;;;-3.83;100.00;101372.59;2081359;28;20681;-73
2022/03/21 04:17:40;;;;;;;112.70;52.20;;;;;;;-3.85;100.00;101377.13;2073971;28;20197;-74
2022/03/21 04:18:44;;;;;;;101.72;50.47;;;;;;;-3.87;100.00;101373.03;2081723;28;20207;-73
2022/03/21 04:19:46;;;;;;;99.35;47.53;;;;;;;-3.91;100.00;101371.69;2081609;28;20717;-74
2022/03/21 04:20:51;;;;;;;105.80;50.33;;;;;;;-3.93;100.00;101366.63;2081118;28;20199;-74
2022/03/21 04:21:53;;;;;;;101.47;51.25;;;;;;;-3.97;100.00;101367.06;2081765;28;20250;-73
2022/03/21 04:22:55;;;;;;;103.80;48.85;;;;;;;-4.02;100.00;101370.91;2073455;28;20204;-74
2022/03/21 04:23:57;;;;;;;107.10;50.95;;;;;;;-4.01;100.00;101376.94;2081617;28;20238;-74
2022/03/21 04:25:00;;;;;;;98.38;49.05;;;;;;;-4.05;100.00;101367.78;2073820;28;20295;-74
2022/03/21 04:26:01;;;;;;;96.38;49.65;;;;;;;-4.06;100.00;101369.56;2081514;28;20195;-74
2022/03/21 04:27:07;;;;;;;97.13;48.97;;;;;;;-4.09;100.00;101376.84;2081633;28;20199;-73
2022/03/21 04:28:08;;;;;;;98.28;48.58;;;;;;;-4.13;100.00;101373.69;2081641;28;20180;-74
2022/03/21 04:29:11;;;;;;;107.68;50.78;;;;;;;-4.15;100.00;101367.81;2082104;28;20187;-74
2022/03/21 04:30:12;;;;;;;104.78;51.13;;;;;;;-4.15;100.00;101369.59;2082010;28;20191;-74
2022/03/21 04:31:16;;;;;;;95.22;47.63;;;;;;;-4.17;100.00;101379.34;2082323;28;20273;-74
2022/03/21 04:32:17;;;;;;;105.93;50.20;;;;;;;-4.19;100.00;101371.66;2082043;28;20219;-74
2022/03/21 04:33:22;;;;;;;96.57;48.60;;;;;;;-4.22;100.00;101374.56;2082005;28;20214;-74
2022/03/21 04:34:24;;;;;;;99.47;49.00;;;;;;;-4.23;100.00;101372.09;2081812;28;20448;-74
2022/03/21 04:35:26;;;;;;;96.73;48.23;;;;;;;-4.24;100.00;101371.28;2073231;28;20207;-74
2022/03/21 04:36:29;;;;;;;112.40;50.78;;;;;;;-4.27;100.00;101372.38;2072586;28;20978;-74
2022/03/21 04:37:30;;;;;;;102.72;48.88;;;;;;;-4.29;100.00;101369.09;2081463;28;20195;-74
2022/03/21 04:38:32;;;;;;;102.75;49.58;;;;;;;-4.30;100.00;101371.84;2080616;28;20748;-74
2022/03/21 04:39:35;;;;;;;107.72;50.78;;;;;;;-4.30;100.00;101377.88;2081646;28;20196;-74
2022/03/21 04:40:37;;;;;;;105.25;48.30;;;;;;;-4.31;100.00;101378.03;2081411;28;20195;-73
2022/03/21 04:41:41;;;;;;;97.97;48.60;;;;;;;-4.32;100.00;101384.19;2081569;28;20253;-73
2022/03/21 04:42:45;;;;;;;98.18;49.20;;;;;;;-4.35;100.00;101385.28;2082011;28;20516;-74
2022/03/21 04:43:49;;;;;;;112.72;49.70;;;;;;;-4.35;100.00;101381.84;2081977;28;20241;-74
2022/03/21 04:44:51;;;;;;;104.63;50.10;;;;;;;-4.36;100.00;101380.22;2082053;28;20232;-74
2022/03/21 04:45:53;;;;;;;100.38;49.70;;;;;;;-4.37;100.00;101382.00;2082011;28;20194;-74
2022/03/21 04:46:56;;;;;;;108.90;50.38;;;;;;;-4.35;100.00;101382.69;2082047;28;20246;-75
2022/03/21 04:48:00;;;;;;;109.45;49.25;;;;;;;-4.36;100.00;101388.03;2081089;28;20235;-74